sensor_id;sensor_type;location;lat;lon;timestamp;P1;durP1;ratioP1;P2;durP2;ratioP2
33285;SDS011;19656;50.096;20.014;2022-09-09T00:02:54;7.60;;;5.60;;
33285;SDS011;19656;50.096;20.014;2022-09-09T00:08:21;8.30;;;5.50;;
33285;SDS011;19656;50.096;20.014;2022-09-09T00:13:36;5.80;;;5.30;;
33285;SDS011;19656;50.096;20.014;2022-09-09T00:24:40;6.40;;;5.60;;
33285;SDS011;19656;50.096;20.014;2022-09-09T00:35:18;6.30;;;4.80;;
33285;SDS011;19656;50.096;20.014;2022-09-09T00:40:27;6.00;;;5.00;;
33285;SDS011;19656;50.096;20.014;2022-09-09T00:51:09;7.10;;;5.50;;
33285;SDS011;19656;50.096;20.014;2022-09-09T00:57:13;5.30;;;4.80;;
33285;SDS011;19656;50.096;20.014;2022-09-09T01:02:12;6.60;;;4.90;;
33285;SDS011;19656;50.096;20.014;2022-09-09T01:07:25;6.60;;;5.00;;
33285;SDS011;19656;50.096;20.014;2022-09-09T01:12:41;6.90;;;5.00;;
33285;SDS011;19656;50.096;20.014;2022-09-09T01:23:23;8.90;;;5.00;;
33285;SDS011;19656;50.096;20.014;2022-09-09T01:28:53;6.70;;;5.00;;
33285;SDS011;19656;50.096;20.014;2022-09-09T01:34:09;5.70;;;5.10;;
33285;SDS011;19656;50.096;20.014;2022-09-09T01:39:14;6.80;;;6.00;;
33285;SDS011;19656;50.096;20.014;2022-09-09T01:44:19;6.50;;;5.60;;
33285;SDS011;19656;50.096;20.014;2022-09-09T01:49:23;5.90;;;5.30;;
33285;SDS011;19656;50.096;20.014;2022-09-09T01:54:27;5.90;;;5.30;;
33285;SDS011;19656;50.096;20.014;2022-09-09T02:05:36;7.80;;;6.40;;
33285;SDS011;19656;50.096;20.014;2022-09-09T02:10:53;7.70;;;5.80;;
33285;SDS011;19656;50.096;20.014;2022-09-09T02:16:20;8.50;;;5.60;;
33285;SDS011;19656;50.096;20.014;2022-09-09T02:21:30;7.60;;;6.40;;
33285;SDS011;19656;50.096;20.014;2022-09-09T02:26:34;7.40;;;6.60;;
33285;SDS011;19656;50.096;20.014;2022-09-09T02:31:44;7.60;;;6.20;;
33285;SDS011;19656;50.096;20.014;2022-09-09T02:36:53;7.00;;;5.20;;
33285;SDS011;19656;50.096;20.014;2022-09-09T02:41:57;5.90;;;5.10;;
33285;SDS011;19656;50.096;20.014;2022-09-09T02:47:20;8.00;;;5.40;;
33285;SDS011;19656;50.096;20.014;2022-09-09T02:52:47;6.50;;;5.80;;
33285;SDS011;19656;50.096;20.014;2022-09-09T02:58:02;8.80;;;6.10;;
33285;SDS011;19656;50.096;20.014;2022-09-09T03:03:10;5.70;;;5.20;;
33285;SDS011;19656;50.096;20.014;2022-09-09T03:08:14;6.50;;;5.70;;
33285;SDS011;19656;50.096;20.014;2022-09-09T03:13:17;7.80;;;5.60;;
33285;SDS011;19656;50.096;20.014;2022-09-09T03:18:21;7.00;;;6.30;;
33285;SDS011;19656;50.096;20.014;2022-09-09T03:23:27;7.40;;;6.40;;
33285;SDS011;19656;50.096;20.014;2022-09-09T03:28:32;7.50;;;6.20;;
33285;SDS011;19656;50.096;20.014;2022-09-09T03:33:37;10.40;;;6.60;;
33285;SDS011;19656;50.096;20.014;2022-09-09T03:38:41;8.30;;;7.10;;
33285;SDS011;19656;50.096;20.014;2022-09-09T03:43:44;8.10;;;7.20;;
33285;SDS011;19656;50.096;20.014;2022-09-09T03:48:47;10.80;;;8.30;;
33285;SDS011;19656;50.096;20.014;2022-09-09T03:53:50;10.50;;;7.30;;
33285;SDS011;19656;50.096;20.014;2022-09-09T03:58:53;7.80;;;6.70;;
33285;SDS011;19656;50.096;20.014;2022-09-09T04:03:57;7.30;;;6.60;;
33285;SDS011;19656;50.096;20.014;2022-09-09T04:09:00;8.00;;;7.10;;
33285;SDS011;19656;50.096;20.014;2022-09-09T04:14:06;9.20;;;6.40;;
33285;SDS011;19656;50.096;20.014;2022-09-09T04:19:10;9.30;;;6.80;;
33285;SDS011;19656;50.096;20.014;2022-09-09T04:24:17;11.40;;;7.30;;
33285;SDS011;19656;50.096;20.014;2022-09-09T04:29:20;10.10;;;8.00;;
33285;SDS011;19656;50.096;20.014;2022-09-09T04:34:23;8.60;;;7.30;;
33285;SDS011;19656;50.096;20.014;2022-09-09T04:39:30;11.30;;;7.90;;
33285;SDS011;19656;50.096;20.014;2022-09-09T04:44:34;8.30;;;7.30;;
33285;SDS011;19656;50.096;20.014;2022-09-09T04:49:37;11.10;;;7.50;;
33285;SDS011;19656;50.096;20.014;2022-09-09T04:54:41;9.60;;;8.10;;
33285;SDS011;19656;50.096;20.014;2022-09-09T04:59:44;9.70;;;8.70;;
33285;SDS011;19656;50.096;20.014;2022-09-09T05:04:48;10.40;;;8.70;;
33285;SDS011;19656;50.096;20.014;2022-09-09T05:09:52;13.80;;;8.30;;
33285;SDS011;19656;50.096;20.014;2022-09-09T05:14:55;8.80;;;7.80;;
33285;SDS011;19656;50.096;20.014;2022-09-09T05:19:58;11.20;;;7.80;;
33285;SDS011;19656;50.096;20.014;2022-09-09T05:25:01;14.20;;;8.10;;
33285;SDS011;19656;50.096;20.014;2022-09-09T05:30:05;9.40;;;6.80;;
33285;SDS011;19656;50.096;20.014;2022-09-09T05:35:09;9.50;;;7.10;;
33285;SDS011;19656;50.096;20.014;2022-09-09T05:40:14;11.50;;;7.10;;
33285;SDS011;19656;50.096;20.014;2022-09-09T05:45:17;10.30;;;6.70;;
33285;SDS011;19656;50.096;20.014;2022-09-09T05:50:20;12.40;;;8.20;;
33285;SDS011;19656;50.096;20.014;2022-09-09T05:55:24;13.10;;;9.00;;
33285;SDS011;19656;50.096;20.014;2022-09-09T06:00:28;16.40;;;9.50;;
33285;SDS011;19656;50.096;20.014;2022-09-09T06:05:34;13.60;;;10.60;;
33285;SDS011;19656;50.096;20.014;2022-09-09T06:10:37;16.90;;;13.80;;
33285;SDS011;19656;50.096;20.014;2022-09-09T06:15:48;16.40;;;13.40;;
33285;SDS011;19656;50.096;20.014;2022-09-09T06:20:57;17.50;;;11.40;;
33285;SDS011;19656;50.096;20.014;2022-09-09T06:26:05;12.90;;;10.10;;
33285;SDS011;19656;50.096;20.014;2022-09-09T06:31:12;13.40;;;10.00;;
33285;SDS011;19656;50.096;20.014;2022-09-09T06:36:17;16.30;;;11.50;;
33285;SDS011;19656;50.096;20.014;2022-09-09T06:41:21;16.10;;;13.20;;
33285;SDS011;19656;50.096;20.014;2022-09-09T06:46:26;24.50;;;16.00;;
33285;SDS011;19656;50.096;20.014;2022-09-09T06:51:31;13.50;;;9.70;;
33285;SDS011;19656;50.096;20.014;2022-09-09T06:56:38;11.40;;;8.90;;
33285;SDS011;19656;50.096;20.014;2022-09-09T07:01:55;17.10;;;9.50;;
33285;SDS011;19656;50.096;20.014;2022-09-09T07:06:59;12.70;;;9.10;;
33285;SDS011;19656;50.096;20.014;2022-09-09T07:12:04;9.60;;;8.40;;
33285;SDS011;19656;50.096;20.014;2022-09-09T07:17:09;10.00;;;6.90;;
33285;SDS011;19656;50.096;20.014;2022-09-09T07:22:13;9.60;;;7.30;;
33285;SDS011;19656;50.096;20.014;2022-09-09T07:27:17;15.70;;;10.40;;
33285;SDS011;19656;50.096;20.014;2022-09-09T07:32:22;12.30;;;7.10;;
33285;SDS011;19656;50.096;20.014;2022-09-09T07:37:26;10.50;;;9.30;;
33285;SDS011;19656;50.096;20.014;2022-09-09T07:42:29;12.70;;;9.90;;
33285;SDS011;19656;50.096;20.014;2022-09-09T07:47:33;12.90;;;8.40;;
33285;SDS011;19656;50.096;20.014;2022-09-09T07:52:37;12.60;;;9.10;;
33285;SDS011;19656;50.096;20.014;2022-09-09T07:57:40;12.70;;;9.40;;
33285;SDS011;19656;50.096;20.014;2022-09-09T08:02:44;13.50;;;9.10;;
33285;SDS011;19656;50.096;20.014;2022-09-09T08:07:47;12.40;;;9.10;;
33285;SDS011;19656;50.096;20.014;2022-09-09T08:12:50;9.00;;;6.50;;
33285;SDS011;19656;50.096;20.014;2022-09-09T08:18:15;12.30;;;6.10;;
33285;SDS011;19656;50.096;20.014;2022-09-09T08:23:18;8.80;;;5.10;;
33285;SDS011;19656;50.096;20.014;2022-09-09T08:28:21;6.70;;;4.80;;
33285;SDS011;19656;50.096;20.014;2022-09-09T08:33:24;10.10;;;4.90;;
33285;SDS011;19656;50.096;20.014;2022-09-09T08:38:28;9.60;;;4.10;;
33285;SDS011;19656;50.096;20.014;2022-09-09T08:43:31;4.40;;;3.70;;
33285;SDS011;19656;50.096;20.014;2022-09-09T08:48:40;6.80;;;4.00;;
33285;SDS011;19656;50.096;20.014;2022-09-09T08:53:51;4.00;;;3.10;;
33285;SDS011;19656;50.096;20.014;2022-09-09T08:59:02;4.90;;;3.00;;
33285;SDS011;19656;50.096;20.014;2022-09-09T09:15:05;7.70;;;2.50;;
33285;SDS011;19656;50.096;20.014;2022-09-09T09:20:34;5.90;;;2.50;;
33285;SDS011;19656;50.096;20.014;2022-09-09T09:25:47;4.00;;;2.60;;
33285;SDS011;19656;50.096;20.014;2022-09-09T09:30:54;4.40;;;2.60;;
33285;SDS011;19656;50.096;20.014;2022-09-09T09:36:05;6.40;;;2.40;;
33285;SDS011;19656;50.096;20.014;2022-09-09T09:41:11;6.70;;;2.20;;
33285;SDS011;19656;50.096;20.014;2022-09-09T09:46:18;3.60;;;1.80;;
33285;SDS011;19656;50.096;20.014;2022-09-09T09:51:27;9.00;;;4.20;;
33285;SDS011;19656;50.096;20.014;2022-09-09T09:56:33;4.40;;;2.20;;
33285;SDS011;19656;50.096;20.014;2022-09-09T10:02:16;4.90;;;1.90;;
33285;SDS011;19656;50.096;20.014;2022-09-09T10:07:21;4.10;;;1.40;;
33285;SDS011;19656;50.096;20.014;2022-09-09T10:12:47;7.30;;;2.10;;
33285;SDS011;19656;50.096;20.014;2022-09-09T10:18:06;4.70;;;1.50;;
33285;SDS011;19656;50.096;20.014;2022-09-09T10:55:39;1.50;;;1.10;;
33285;SDS011;19656;50.096;20.014;2022-09-09T11:00:49;2.50;;;1.20;;
33285;SDS011;19656;50.096;20.014;2022-09-09T11:06:04;5.10;;;1.40;;
33285;SDS011;19656;50.096;20.014;2022-09-09T11:11:26;3.10;;;1.40;;
33285;SDS011;19656;50.096;20.014;2022-09-09T11:16:42;3.20;;;1.20;;
33285;SDS011;19656;50.096;20.014;2022-09-09T11:21:51;3.00;;;1.10;;
33285;SDS011;19656;50.096;20.014;2022-09-09T11:26:58;3.90;;;1.30;;
33285;SDS011;19656;50.096;20.014;2022-09-09T11:32:26;6.10;;;1.10;;
33285;SDS011;19656;50.096;20.014;2022-09-09T11:53:27;1.10;;;0.90;;
33285;SDS011;19656;50.096;20.014;2022-09-09T11:58:33;1.90;;;0.90;;
33285;SDS011;19656;50.096;20.014;2022-09-09T12:03:45;4.20;;;1.20;;
33285;SDS011;19656;50.096;20.014;2022-09-09T12:08:51;2.50;;;1.10;;
33285;SDS011;19656;50.096;20.014;2022-09-09T12:13:59;0.80;;;0.70;;
33285;SDS011;19656;50.096;20.014;2022-09-09T12:19:05;1.60;;;0.90;;
33285;SDS011;19656;50.096;20.014;2022-09-09T12:24:11;1.80;;;1.00;;
33285;SDS011;19656;50.096;20.014;2022-09-09T12:29:24;3.90;;;1.20;;
33285;SDS011;19656;50.096;20.014;2022-09-09T12:34:39;2.20;;;1.00;;
33285;SDS011;19656;50.096;20.014;2022-09-09T12:39:45;4.40;;;1.10;;
33285;SDS011;19656;50.096;20.014;2022-09-09T12:45:03;3.80;;;1.10;;
33285;SDS011;19656;50.096;20.014;2022-09-09T12:50:23;3.20;;;1.00;;
33285;SDS011;19656;50.096;20.014;2022-09-09T12:55:29;3.40;;;1.20;;
33285;SDS011;19656;50.096;20.014;2022-09-09T13:00:35;1.20;;;1.10;;
33285;SDS011;19656;50.096;20.014;2022-09-09T13:05:38;4.30;;;1.40;;
33285;SDS011;19656;50.096;20.014;2022-09-09T13:10:46;1.80;;;1.30;;
33285;SDS011;19656;50.096;20.014;2022-09-09T13:16:04;2.30;;;1.10;;
33285;SDS011;19656;50.096;20.014;2022-09-09T13:21:11;3.20;;;1.40;;
33285;SDS011;19656;50.096;20.014;2022-09-09T13:31:29;2.00;;;1.10;;
33285;SDS011;19656;50.096;20.014;2022-09-09T13:36:35;1.70;;;1.00;;
33285;SDS011;19656;50.096;20.014;2022-09-09T13:41:44;2.80;;;1.10;;
33285;SDS011;19656;50.096;20.014;2022-09-09T13:47:04;3.90;;;2.00;;
33285;SDS011;19656;50.096;20.014;2022-09-09T13:52:16;5.80;;;1.80;;
33285;SDS011;19656;50.096;20.014;2022-09-09T13:57:22;3.60;;;1.20;;
33285;SDS011;19656;50.096;20.014;2022-09-09T14:02:27;7.10;;;1.40;;
33285;SDS011;19656;50.096;20.014;2022-09-09T14:07:31;1.90;;;1.30;;
33285;SDS011;19656;50.096;20.014;2022-09-09T14:12:34;3.70;;;1.50;;
33285;SDS011;19656;50.096;20.014;2022-09-09T14:17:38;3.60;;;1.20;;
33285;SDS011;19656;50.096;20.014;2022-09-09T14:22:41;1.50;;;1.30;;
33285;SDS011;19656;50.096;20.014;2022-09-09T14:27:44;5.40;;;1.80;;
33285;SDS011;19656;50.096;20.014;2022-09-09T14:32:48;5.20;;;1.60;;
33285;SDS011;19656;50.096;20.014;2022-09-09T14:37:51;3.30;;;1.60;;
33285;SDS011;19656;50.096;20.014;2022-09-09T14:42:54;3.70;;;1.50;;
33285;SDS011;19656;50.096;20.014;2022-09-09T14:47:58;4.50;;;1.40;;
33285;SDS011;19656;50.096;20.014;2022-09-09T14:53:02;4.70;;;1.30;;
33285;SDS011;19656;50.096;20.014;2022-09-09T14:58:05;4.60;;;1.70;;
33285;SDS011;19656;50.096;20.014;2022-09-09T15:03:09;2.80;;;1.20;;
33285;SDS011;19656;50.096;20.014;2022-09-09T15:08:15;3.60;;;1.20;;
33285;SDS011;19656;50.096;20.014;2022-09-09T15:13:18;1.70;;;1.00;;
33285;SDS011;19656;50.096;20.014;2022-09-09T15:18:21;2.50;;;1.10;;
33285;SDS011;19656;50.096;20.014;2022-09-09T15:23:24;2.80;;;1.20;;
33285;SDS011;19656;50.096;20.014;2022-09-09T15:28:27;4.20;;;1.20;;
33285;SDS011;19656;50.096;20.014;2022-09-09T15:33:30;2.10;;;0.80;;
33285;SDS011;19656;50.096;20.014;2022-09-09T15:38:34;4.30;;;1.30;;
33285;SDS011;19656;50.096;20.014;2022-09-09T15:43:37;1.60;;;1.50;;
33285;SDS011;19656;50.096;20.014;2022-09-09T15:48:41;3.00;;;1.70;;
33285;SDS011;19656;50.096;20.014;2022-09-09T15:53:53;4.60;;;1.90;;
33285;SDS011;19656;50.096;20.014;2022-09-09T15:59:00;3.20;;;1.80;;
33285;SDS011;19656;50.096;20.014;2022-09-09T16:04:06;6.80;;;2.10;;
33285;SDS011;19656;50.096;20.014;2022-09-09T16:09:09;2.20;;;1.70;;
33285;SDS011;19656;50.096;20.014;2022-09-09T16:14:13;2.10;;;1.80;;
33285;SDS011;19656;50.096;20.014;2022-09-09T16:19:18;2.70;;;2.00;;
33285;SDS011;19656;50.096;20.014;2022-09-09T16:24:21;3.50;;;1.90;;
33285;SDS011;19656;50.096;20.014;2022-09-09T16:29:26;2.40;;;1.90;;
33285;SDS011;19656;50.096;20.014;2022-09-09T16:34:30;3.10;;;2.10;;
33285;SDS011;19656;50.096;20.014;2022-09-09T16:39:33;6.90;;;2.20;;
33285;SDS011;19656;50.096;20.014;2022-09-09T16:44:36;3.80;;;2.10;;
33285;SDS011;19656;50.096;20.014;2022-09-09T16:49:39;5.50;;;2.20;;
33285;SDS011;19656;50.096;20.014;2022-09-09T16:54:43;3.60;;;2.70;;
33285;SDS011;19656;50.096;20.014;2022-09-09T16:59:47;5.00;;;3.00;;
33285;SDS011;19656;50.096;20.014;2022-09-09T17:04:51;5.20;;;3.20;;
33285;SDS011;19656;50.096;20.014;2022-09-09T17:09:55;6.00;;;3.10;;
33285;SDS011;19656;50.096;20.014;2022-09-09T17:14:58;4.00;;;3.00;;
33285;SDS011;19656;50.096;20.014;2022-09-09T17:20:03;6.70;;;3.40;;
33285;SDS011;19656;50.096;20.014;2022-09-09T17:30:11;7.50;;;3.50;;
33285;SDS011;19656;50.096;20.014;2022-09-09T17:35:15;5.80;;;3.80;;
33285;SDS011;19656;50.096;20.014;2022-09-09T17:40:18;7.70;;;3.90;;
33285;SDS011;19656;50.096;20.014;2022-09-09T17:45:22;5.50;;;3.10;;
33285;SDS011;19656;50.096;20.014;2022-09-09T17:50:25;5.40;;;3.50;;
33285;SDS011;19656;50.096;20.014;2022-09-09T17:55:28;7.70;;;3.90;;
33285;SDS011;19656;50.096;20.014;2022-09-09T18:00:31;11.10;;;4.40;;
33285;SDS011;19656;50.096;20.014;2022-09-09T18:05:34;6.20;;;4.30;;
33285;SDS011;19656;50.096;20.014;2022-09-09T18:10:37;12.20;;;4.40;;
33285;SDS011;19656;50.096;20.014;2022-09-09T18:15:41;6.90;;;4.50;;
33285;SDS011;19656;50.096;20.014;2022-09-09T18:20:58;8.80;;;4.60;;
33285;SDS011;19656;50.096;20.014;2022-09-09T18:26:05;7.80;;;4.80;;
33285;SDS011;19656;50.096;20.014;2022-09-09T18:31:13;6.10;;;4.30;;
33285;SDS011;19656;50.096;20.014;2022-09-09T18:36:39;6.10;;;4.20;;
33285;SDS011;19656;50.096;20.014;2022-09-09T18:41:46;5.90;;;4.00;;
33285;SDS011;19656;50.096;20.014;2022-09-09T18:46:52;7.70;;;4.30;;
33285;SDS011;19656;50.096;20.014;2022-09-09T18:51:55;7.70;;;3.80;;
33285;SDS011;19656;50.096;20.014;2022-09-09T18:56:59;8.40;;;5.00;;
33285;SDS011;19656;50.096;20.014;2022-09-09T19:02:03;7.60;;;4.50;;
33285;SDS011;19656;50.096;20.014;2022-09-09T19:07:06;7.00;;;4.60;;
33285;SDS011;19656;50.096;20.014;2022-09-09T19:12:09;8.80;;;4.80;;
33285;SDS011;19656;50.096;20.014;2022-09-09T19:17:12;7.30;;;5.10;;
33285;SDS011;19656;50.096;20.014;2022-09-09T19:22:16;7.10;;;5.00;;
33285;SDS011;19656;50.096;20.014;2022-09-09T19:27:19;7.50;;;4.80;;
33285;SDS011;19656;50.096;20.014;2022-09-09T19:32:22;6.60;;;4.80;;
33285;SDS011;19656;50.096;20.014;2022-09-09T19:37:45;7.30;;;4.60;;
33285;SDS011;19656;50.096;20.014;2022-09-09T19:42:49;9.30;;;4.80;;
33285;SDS011;19656;50.096;20.014;2022-09-09T19:47:54;7.20;;;4.80;;
33285;SDS011;19656;50.096;20.014;2022-09-09T19:52:57;9.10;;;5.50;;
33285;SDS011;19656;50.096;20.014;2022-09-09T19:58:01;10.00;;;5.10;;
33285;SDS011;19656;50.096;20.014;2022-09-09T20:03:05;11.80;;;5.40;;
33285;SDS011;19656;50.096;20.014;2022-09-09T20:13:24;11.00;;;6.40;;
33285;SDS011;19656;50.096;20.014;2022-09-09T20:18:27;9.70;;;7.10;;
33285;SDS011;19656;50.096;20.014;2022-09-09T20:23:34;12.60;;;7.50;;
33285;SDS011;19656;50.096;20.014;2022-09-09T20:28:39;14.30;;;7.80;;
33285;SDS011;19656;50.096;20.014;2022-09-09T20:33:43;16.70;;;8.90;;
33285;SDS011;19656;50.096;20.014;2022-09-09T20:38:53;16.40;;;10.40;;
33285;SDS011;19656;50.096;20.014;2022-09-09T20:44:00;13.00;;;9.20;;
33285;SDS011;19656;50.096;20.014;2022-09-09T20:49:10;15.80;;;9.40;;
33285;SDS011;19656;50.096;20.014;2022-09-09T20:54:14;15.10;;;9.80;;
33285;SDS011;19656;50.096;20.014;2022-09-09T20:59:20;12.10;;;8.50;;
33285;SDS011;19656;50.096;20.014;2022-09-09T21:04:25;12.00;;;9.40;;
33285;SDS011;19656;50.096;20.014;2022-09-09T21:09:28;11.60;;;9.10;;
33285;SDS011;19656;50.096;20.014;2022-09-09T21:14:31;12.20;;;9.30;;
33285;SDS011;19656;50.096;20.014;2022-09-09T21:19:34;11.20;;;9.20;;
33285;SDS011;19656;50.096;20.014;2022-09-09T21:24:37;11.20;;;9.40;;
33285;SDS011;19656;50.096;20.014;2022-09-09T21:29:40;15.60;;;9.50;;
33285;SDS011;19656;50.096;20.014;2022-09-09T21:34:43;14.70;;;10.00;;
33285;SDS011;19656;50.096;20.014;2022-09-09T21:39:47;13.20;;;10.20;;
33285;SDS011;19656;50.096;20.014;2022-09-09T21:44:50;10.70;;;8.70;;
33285;SDS011;19656;50.096;20.014;2022-09-09T21:49:53;12.60;;;9.40;;
33285;SDS011;19656;50.096;20.014;2022-09-09T21:54:56;15.70;;;9.70;;
33285;SDS011;19656;50.096;20.014;2022-09-09T21:59:59;13.10;;;10.60;;
33285;SDS011;19656;50.096;20.014;2022-09-09T22:05:03;16.60;;;10.50;;
33285;SDS011;19656;50.096;20.014;2022-09-09T22:10:06;13.90;;;10.80;;
33285;SDS011;19656;50.096;20.014;2022-09-09T22:15:11;14.20;;;11.30;;
33285;SDS011;19656;50.096;20.014;2022-09-09T22:20:14;13.00;;;10.90;;
33285;SDS011;19656;50.096;20.014;2022-09-09T22:25:18;14.70;;;11.60;;
33285;SDS011;19656;50.096;20.014;2022-09-09T22:30:20;16.10;;;11.50;;
33285;SDS011;19656;50.096;20.014;2022-09-09T22:35:23;15.30;;;11.60;;
33285;SDS011;19656;50.096;20.014;2022-09-09T22:40:26;26.90;;;14.80;;
33285;SDS011;19656;50.096;20.014;2022-09-09T22:45:29;18.80;;;12.80;;
33285;SDS011;19656;50.096;20.014;2022-09-09T22:50:34;19.00;;;13.60;;
33285;SDS011;19656;50.096;20.014;2022-09-09T22:55:53;14.90;;;12.50;;
33285;SDS011;19656;50.096;20.014;2022-09-09T23:01:06;56.10;;;34.50;;
33285;SDS011;19656;50.096;20.014;2022-09-09T23:06:18;30.60;;;17.50;;
33285;SDS011;19656;50.096;20.014;2022-09-09T23:11:27;21.00;;;14.40;;
33285;SDS011;19656;50.096;20.014;2022-09-09T23:16:43;19.30;;;13.20;;
33285;SDS011;19656;50.096;20.014;2022-09-09T23:21:46;18.80;;;14.30;;
33285;SDS011;19656;50.096;20.014;2022-09-09T23:26:50;17.40;;;13.50;;
33285;SDS011;19656;50.096;20.014;2022-09-09T23:31:54;16.70;;;13.30;;
33285;SDS011;19656;50.096;20.014;2022-09-09T23:36:57;19.80;;;13.60;;
33285;SDS011;19656;50.096;20.014;2022-09-09T23:42:00;19.90;;;15.10;;
33285;SDS011;19656;50.096;20.014;2022-09-09T23:47:07;21.70;;;15.00;;
33285;SDS011;19656;50.096;20.014;2022-09-09T23:52:11;21.20;;;15.60;;
33285;SDS011;19656;50.096;20.014;2022-09-09T23:57:14;19.60;;;15.10;;
